sensor_id;sensor_type;location;lat;lon;timestamp;P1;durP1;ratioP1;P2;durP2;ratioP2
66175;SDS011;52977;44.816;20.538;2022-09-09T00:00:31;11.32;;;5.28;;
66175;SDS011;52977;44.816;20.538;2022-09-09T00:03:02;14.35;;;5.85;;
66175;SDS011;52977;44.816;20.538;2022-09-09T00:08:07;13.38;;;5.28;;
66175;SDS011;52977;44.816;20.538;2022-09-09T00:10:44;15.00;;;5.85;;
66175;SDS011;52977;44.816;20.538;2022-09-09T00:13:19;13.38;;;5.90;;
66175;SDS011;52977;44.816;20.538;2022-09-09T00:18:25;11.55;;;5.45;;
66175;SDS011;52977;44.816;20.538;2022-09-09T00:21:05;10.48;;;5.40;;
66175;SDS011;52977;44.816;20.538;2022-09-09T00:23:38;9.90;;;5.50;;
66175;SDS011;52977;44.816;20.538;2022-09-09T00:28:39;11.98;;;6.20;;
66175;SDS011;52977;44.816;20.538;2022-09-09T00:31:29;12.80;;;5.40;;
66175;SDS011;52977;44.816;20.538;2022-09-09T00:36:41;9.13;;;5.63;;
66175;SDS011;52977;44.816;20.538;2022-09-09T00:39:11;12.85;;;5.75;;
66175;SDS011;52977;44.816;20.538;2022-09-09T00:58:08;12.23;;;5.10;;
66175;SDS011;52977;44.816;20.538;2022-09-09T01:00:44;10.20;;;5.40;;
66175;SDS011;52977;44.816;20.538;2022-09-09T01:06:12;15.82;;;5.30;;
66175;SDS011;52977;44.816;20.538;2022-09-09T01:11:49;12.95;;;5.03;;
66175;SDS011;52977;44.816;20.538;2022-09-09T01:28:05;10.82;;;5.75;;
66175;SDS011;52977;44.816;20.538;2022-09-09T01:30:38;13.27;;;5.80;;
66175;SDS011;52977;44.816;20.538;2022-09-09T01:33:10;11.43;;;5.95;;
66175;SDS011;52977;44.816;20.538;2022-09-09T01:36:15;11.40;;;5.75;;
66175;SDS011;52977;44.816;20.538;2022-09-09T01:38:42;11.93;;;6.13;;
66175;SDS011;52977;44.816;20.538;2022-09-09T01:41:08;11.30;;;6.07;;
66175;SDS011;52977;44.816;20.538;2022-09-09T01:43:44;11.75;;;6.38;;
66175;SDS011;52977;44.816;20.538;2022-09-09T01:46:10;10.40;;;5.38;;
66175;SDS011;52977;44.816;20.538;2022-09-09T01:48:39;12.57;;;5.90;;
66175;SDS011;52977;44.816;20.538;2022-09-09T01:51:08;10.48;;;5.35;;
66175;SDS011;52977;44.816;20.538;2022-09-09T01:53:38;10.38;;;5.50;;
66175;SDS011;52977;44.816;20.538;2022-09-09T02:01:57;10.43;;;5.50;;
66175;SDS011;52977;44.816;20.538;2022-09-09T02:07:02;11.23;;;5.43;;
66175;SDS011;52977;44.816;20.538;2022-09-09T02:09:40;11.43;;;5.13;;
66175;SDS011;52977;44.816;20.538;2022-09-09T02:12:14;11.43;;;5.05;;
66175;SDS011;52977;44.816;20.538;2022-09-09T02:14:56;10.18;;;5.30;;
66175;SDS011;52977;44.816;20.538;2022-09-09T02:17:44;15.82;;;5.70;;
66175;SDS011;52977;44.816;20.538;2022-09-09T02:22:51;11.88;;;5.15;;
66175;SDS011;52977;44.816;20.538;2022-09-09T02:25:21;10.77;;;4.45;;
66175;SDS011;52977;44.816;20.538;2022-09-09T02:27:52;13.55;;;5.55;;
66175;SDS011;52977;44.816;20.538;2022-09-09T02:30:18;11.15;;;5.03;;
66175;SDS011;52977;44.816;20.538;2022-09-09T02:32:55;10.55;;;5.40;;
66175;SDS011;52977;44.816;20.538;2022-09-09T02:35:29;10.80;;;5.28;;
66175;SDS011;52977;44.816;20.538;2022-09-09T02:37:59;11.48;;;4.70;;
66175;SDS011;52977;44.816;20.538;2022-09-09T02:40:29;9.40;;;4.95;;
66175;SDS011;52977;44.816;20.538;2022-09-09T02:42:59;12.63;;;5.40;;
66175;SDS011;52977;44.816;20.538;2022-09-09T02:45:36;9.90;;;5.38;;
66175;SDS011;52977;44.816;20.538;2022-09-09T02:48:26;12.82;;;5.28;;
66175;SDS011;52977;44.816;20.538;2022-09-09T02:53:33;11.20;;;5.40;;
66175;SDS011;52977;44.816;20.538;2022-09-09T02:56:06;13.77;;;5.40;;
66175;SDS011;52977;44.816;20.538;2022-09-09T02:58:41;8.48;;;5.53;;
66175;SDS011;52977;44.816;20.538;2022-09-09T03:01:07;10.40;;;4.85;;
66175;SDS011;52977;44.816;20.538;2022-09-09T03:03:34;9.70;;;4.85;;
66175;SDS011;52977;44.816;20.538;2022-09-09T03:06:04;14.30;;;4.93;;
66175;SDS011;52977;44.816;20.538;2022-09-09T03:08:31;10.73;;;5.43;;
66175;SDS011;52977;44.816;20.538;2022-09-09T03:10:59;11.13;;;4.88;;
66175;SDS011;52977;44.816;20.538;2022-09-09T03:13:31;11.95;;;5.75;;
66175;SDS011;52977;44.816;20.538;2022-09-09T03:15:57;13.45;;;5.70;;
66175;SDS011;52977;44.816;20.538;2022-09-09T03:18:22;11.45;;;5.13;;
66175;SDS011;52977;44.816;20.538;2022-09-09T03:20:51;9.95;;;5.15;;
66175;SDS011;52977;44.816;20.538;2022-09-09T03:23:20;9.07;;;5.32;;
66175;SDS011;52977;44.816;20.538;2022-09-09T03:25:48;12.55;;;5.55;;
66175;SDS011;52977;44.816;20.538;2022-09-09T03:28:22;11.27;;;6.10;;
66175;SDS011;52977;44.816;20.538;2022-09-09T03:30:49;9.98;;;5.05;;
66175;SDS011;52977;44.816;20.538;2022-09-09T03:33:15;13.52;;;5.88;;
66175;SDS011;52977;44.816;20.538;2022-09-09T03:35:46;11.38;;;5.47;;
66175;SDS011;52977;44.816;20.538;2022-09-09T03:38:18;13.45;;;5.45;;
66175;SDS011;52977;44.816;20.538;2022-09-09T03:40:53;14.13;;;5.70;;
66175;SDS011;52977;44.816;20.538;2022-09-09T03:43:21;10.65;;;5.18;;
66175;SDS011;52977;44.816;20.538;2022-09-09T03:45:49;11.88;;;5.30;;
66175;SDS011;52977;44.816;20.538;2022-09-09T03:48:16;14.95;;;5.45;;
66175;SDS011;52977;44.816;20.538;2022-09-09T03:50:48;13.20;;;5.35;;
66175;SDS011;52977;44.816;20.538;2022-09-09T03:53:16;15.80;;;5.80;;
66175;SDS011;52977;44.816;20.538;2022-09-09T03:55:43;10.10;;;4.85;;
66175;SDS011;52977;44.816;20.538;2022-09-09T03:58:13;12.65;;;5.40;;
66175;SDS011;52977;44.816;20.538;2022-09-09T04:00:41;15.23;;;6.18;;
66175;SDS011;52977;44.816;20.538;2022-09-09T04:03:11;13.48;;;5.63;;
66175;SDS011;52977;44.816;20.538;2022-09-09T04:05:39;13.50;;;5.78;;
66175;SDS011;52977;44.816;20.538;2022-09-09T04:08:07;14.38;;;5.55;;
66175;SDS011;52977;44.816;20.538;2022-09-09T04:10:34;17.35;;;5.97;;
66175;SDS011;52977;44.816;20.538;2022-09-09T04:13:04;13.38;;;6.53;;
66175;SDS011;52977;44.816;20.538;2022-09-09T04:15:30;17.23;;;6.78;;
66175;SDS011;52977;44.816;20.538;2022-09-09T04:17:57;16.90;;;6.43;;
66175;SDS011;52977;44.816;20.538;2022-09-09T04:20:23;13.98;;;6.65;;
66175;SDS011;52977;44.816;20.538;2022-09-09T04:22:49;13.27;;;6.25;;
66175;SDS011;52977;44.816;20.538;2022-09-09T04:25:15;14.57;;;5.97;;
66175;SDS011;52977;44.816;20.538;2022-09-09T04:27:41;17.83;;;6.53;;
66175;SDS011;52977;44.816;20.538;2022-09-09T04:30:08;14.15;;;6.20;;
66175;SDS011;52977;44.816;20.538;2022-09-09T04:32:36;16.65;;;6.43;;
66175;SDS011;52977;44.816;20.538;2022-09-09T04:35:02;15.65;;;6.80;;
66175;SDS011;52977;44.816;20.538;2022-09-09T04:37:28;11.52;;;6.00;;
66175;SDS011;52977;44.816;20.538;2022-09-09T04:39:54;12.95;;;5.85;;
66175;SDS011;52977;44.816;20.538;2022-09-09T04:42:21;13.13;;;5.93;;
66175;SDS011;52977;44.816;20.538;2022-09-09T04:44:46;13.30;;;6.30;;
66175;SDS011;52977;44.816;20.538;2022-09-09T04:47:12;16.73;;;6.32;;
66175;SDS011;52977;44.816;20.538;2022-09-09T04:49:39;15.95;;;6.72;;
66175;SDS011;52977;44.816;20.538;2022-09-09T04:52:06;15.05;;;6.07;;
66175;SDS011;52977;44.816;20.538;2022-09-09T04:54:34;16.70;;;6.07;;
66175;SDS011;52977;44.816;20.538;2022-09-09T04:57:00;15.52;;;6.00;;
66175;SDS011;52977;44.816;20.538;2022-09-09T04:59:25;12.38;;;6.68;;
66175;SDS011;52977;44.816;20.538;2022-09-09T05:01:54;14.00;;;6.68;;
66175;SDS011;52977;44.816;20.538;2022-09-09T05:04:21;15.88;;;7.07;;
66175;SDS011;52977;44.816;20.538;2022-09-09T05:06:47;13.02;;;6.68;;
66175;SDS011;52977;44.816;20.538;2022-09-09T05:09:12;15.13;;;6.10;;
66175;SDS011;52977;44.816;20.538;2022-09-09T05:11:38;14.73;;;5.85;;
66175;SDS011;52977;44.816;20.538;2022-09-09T05:14:19;13.07;;;5.85;;
66175;SDS011;52977;44.816;20.538;2022-09-09T05:16:45;12.13;;;5.25;;
66175;SDS011;52977;44.816;20.538;2022-09-09T05:19:12;16.83;;;6.28;;
66175;SDS011;52977;44.816;20.538;2022-09-09T05:21:46;13.25;;;5.93;;
66175;SDS011;52977;44.816;20.538;2022-09-09T05:24:14;16.52;;;6.43;;
66175;SDS011;52977;44.816;20.538;2022-09-09T05:26:41;13.20;;;6.03;;
66175;SDS011;52977;44.816;20.538;2022-09-09T05:29:07;13.10;;;5.80;;
66175;SDS011;52977;44.816;20.538;2022-09-09T05:31:33;17.50;;;5.90;;
66175;SDS011;52977;44.816;20.538;2022-09-09T05:34:02;16.33;;;6.43;;
66175;SDS011;52977;44.816;20.538;2022-09-09T05:36:28;15.20;;;6.18;;
66175;SDS011;52977;44.816;20.538;2022-09-09T05:38:55;12.05;;;6.60;;
66175;SDS011;52977;44.816;20.538;2022-09-09T05:41:21;14.60;;;6.40;;
66175;SDS011;52977;44.816;20.538;2022-09-09T05:43:49;16.80;;;6.63;;
66175;SDS011;52977;44.816;20.538;2022-09-09T05:46:17;11.27;;;6.15;;
66175;SDS011;52977;44.816;20.538;2022-09-09T05:48:46;13.80;;;6.50;;
66175;SDS011;52977;44.816;20.538;2022-09-09T05:51:16;15.38;;;6.28;;
66175;SDS011;52977;44.816;20.538;2022-09-09T05:53:44;15.93;;;5.55;;
66175;SDS011;52977;44.816;20.538;2022-09-09T05:56:12;11.48;;;6.20;;
66175;SDS011;52977;44.816;20.538;2022-09-09T05:58:40;12.00;;;5.60;;
66175;SDS011;52977;44.816;20.538;2022-09-09T06:01:11;14.57;;;6.57;;
66175;SDS011;52977;44.816;20.538;2022-09-09T06:03:42;17.15;;;6.90;;
66175;SDS011;52977;44.816;20.538;2022-09-09T06:06:12;12.93;;;6.20;;
66175;SDS011;52977;44.816;20.538;2022-09-09T06:08:46;11.85;;;6.47;;
66175;SDS011;52977;44.816;20.538;2022-09-09T06:11:16;11.80;;;6.05;;
66175;SDS011;52977;44.816;20.538;2022-09-09T06:13:43;14.90;;;8.32;;
66175;SDS011;52977;44.816;20.538;2022-09-09T06:16:10;16.25;;;8.40;;
66175;SDS011;52977;44.816;20.538;2022-09-09T06:18:38;13.48;;;6.20;;
66175;SDS011;52977;44.816;20.538;2022-09-09T06:21:06;13.50;;;6.15;;
66175;SDS011;52977;44.816;20.538;2022-09-09T06:23:34;17.40;;;6.40;;
66175;SDS011;52977;44.816;20.538;2022-09-09T06:26:09;12.88;;;6.60;;
66175;SDS011;52977;44.816;20.538;2022-09-09T06:28:37;12.00;;;5.90;;
66175;SDS011;52977;44.816;20.538;2022-09-09T06:31:04;13.55;;;6.30;;
66175;SDS011;52977;44.816;20.538;2022-09-09T06:33:35;16.55;;;6.40;;
66175;SDS011;52977;44.816;20.538;2022-09-09T06:36:07;11.23;;;6.03;;
66175;SDS011;52977;44.816;20.538;2022-09-09T06:38:37;12.68;;;6.45;;
66175;SDS011;52977;44.816;20.538;2022-09-09T06:41:03;15.45;;;7.38;;
66175;SDS011;52977;44.816;20.538;2022-09-09T06:43:31;17.25;;;7.95;;
66175;SDS011;52977;44.816;20.538;2022-09-09T06:45:59;18.17;;;8.32;;
66175;SDS011;52977;44.816;20.538;2022-09-09T06:48:31;12.25;;;6.32;;
66175;SDS011;52977;44.816;20.538;2022-09-09T06:53:35;14.15;;;6.72;;
66175;SDS011;52977;44.816;20.538;2022-09-09T06:56:02;17.05;;;7.80;;
66175;SDS011;52977;44.816;20.538;2022-09-09T06:58:44;15.98;;;6.40;;
66175;SDS011;52977;44.816;20.538;2022-09-09T07:01:17;12.98;;;6.40;;
66175;SDS011;52977;44.816;20.538;2022-09-09T07:03:51;17.40;;;7.65;;
66175;SDS011;52977;44.816;20.538;2022-09-09T07:06:25;11.95;;;6.55;;
66175;SDS011;52977;44.816;20.538;2022-09-09T07:08:54;19.92;;;7.43;;
66175;SDS011;52977;44.816;20.538;2022-09-09T07:11:25;12.18;;;6.82;;
66175;SDS011;52977;44.816;20.538;2022-09-09T07:13:53;14.98;;;6.07;;
66175;SDS011;52977;44.816;20.538;2022-09-09T07:16:20;14.15;;;6.68;;
66175;SDS011;52977;44.816;20.538;2022-09-09T07:18:47;14.27;;;6.13;;
66175;SDS011;52977;44.816;20.538;2022-09-09T07:21:15;13.43;;;6.50;;
66175;SDS011;52977;44.816;20.538;2022-09-09T07:23:42;18.42;;;8.43;;
66175;SDS011;52977;44.816;20.538;2022-09-09T07:26:15;18.60;;;8.60;;
66175;SDS011;52977;44.816;20.538;2022-09-09T07:28:44;14.90;;;6.68;;
66175;SDS011;52977;44.816;20.538;2022-09-09T07:31:21;18.98;;;6.60;;
66175;SDS011;52977;44.816;20.538;2022-09-09T07:33:49;13.38;;;6.80;;
66175;SDS011;52977;44.816;20.538;2022-09-09T07:36:15;19.48;;;7.28;;
66175;SDS011;52977;44.816;20.538;2022-09-09T07:38:50;15.90;;;8.43;;
66175;SDS011;52977;44.816;20.538;2022-09-09T07:41:19;18.98;;;9.88;;
66175;SDS011;52977;44.816;20.538;2022-09-09T07:43:50;21.20;;;9.63;;
66175;SDS011;52977;44.816;20.538;2022-09-09T07:46:17;23.05;;;10.55;;
66175;SDS011;52977;44.816;20.538;2022-09-09T07:48:50;16.67;;;8.57;;
66175;SDS011;52977;44.816;20.538;2022-09-09T07:51:26;20.63;;;9.45;;
66175;SDS011;52977;44.816;20.538;2022-09-09T07:53:59;20.35;;;10.80;;
66175;SDS011;52977;44.816;20.538;2022-09-09T07:56:28;18.75;;;9.75;;
66175;SDS011;52977;44.816;20.538;2022-09-09T07:58:56;23.15;;;10.93;;
66175;SDS011;52977;44.816;20.538;2022-09-09T08:01:28;21.80;;;9.68;;
66175;SDS011;52977;44.816;20.538;2022-09-09T08:04:00;21.75;;;11.35;;
66175;SDS011;52977;44.816;20.538;2022-09-09T08:06:30;23.08;;;11.75;;
66175;SDS011;52977;44.816;20.538;2022-09-09T08:09:03;22.27;;;10.90;;
66175;SDS011;52977;44.816;20.538;2022-09-09T08:11:31;38.90;;;17.88;;
66175;SDS011;52977;44.816;20.538;2022-09-09T08:13:58;30.58;;;13.93;;
66175;SDS011;52977;44.816;20.538;2022-09-09T08:16:26;26.05;;;12.35;;
66175;SDS011;52977;44.816;20.538;2022-09-09T08:21:22;17.40;;;7.63;;
66175;SDS011;52977;44.816;20.538;2022-09-09T08:23:54;15.98;;;7.72;;
66175;SDS011;52977;44.816;20.538;2022-09-09T08:26:23;16.17;;;7.15;;
66175;SDS011;52977;44.816;20.538;2022-09-09T08:28:54;13.73;;;6.97;;
66175;SDS011;52977;44.816;20.538;2022-09-09T08:31:33;11.75;;;7.05;;
66175;SDS011;52977;44.816;20.538;2022-09-09T08:34:00;14.88;;;6.50;;
66175;SDS011;52977;44.816;20.538;2022-09-09T08:36:31;11.75;;;6.63;;
66175;SDS011;52977;44.816;20.538;2022-09-09T08:39:03;13.63;;;7.00;;
66175;SDS011;52977;44.816;20.538;2022-09-09T08:53:01;12.68;;;6.70;;
66175;SDS011;52977;44.816;20.538;2022-09-09T08:55:49;13.60;;;7.18;;
66175;SDS011;52977;44.816;20.538;2022-09-09T08:58:35;12.38;;;7.65;;
66175;SDS011;52977;44.816;20.538;2022-09-09T09:01:33;13.45;;;7.35;;
66175;SDS011;52977;44.816;20.538;2022-09-09T09:06:56;14.52;;;7.05;;
66175;SDS011;52977;44.816;20.538;2022-09-09T09:12:46;19.13;;;7.45;;
66175;SDS011;52977;44.816;20.538;2022-09-09T09:15:19;13.00;;;7.60;;
66175;SDS011;52977;44.816;20.538;2022-09-09T09:17:49;12.38;;;6.85;;
66175;SDS011;52977;44.816;20.538;2022-09-09T09:20:17;12.80;;;6.63;;
66175;SDS011;52977;44.816;20.538;2022-09-09T09:22:51;15.73;;;7.93;;
66175;SDS011;52977;44.816;20.538;2022-09-09T09:25:37;12.98;;;7.68;;
66175;SDS011;52977;44.816;20.538;2022-09-09T09:33:52;12.75;;;7.20;;
66175;SDS011;52977;44.816;20.538;2022-09-09T09:36:25;13.35;;;6.68;;
66175;SDS011;52977;44.816;20.538;2022-09-09T09:39:02;16.33;;;9.67;;
66175;SDS011;52977;44.816;20.538;2022-09-09T09:41:32;16.63;;;8.55;;
66175;SDS011;52977;44.816;20.538;2022-09-09T09:44:03;15.98;;;7.97;;
66175;SDS011;52977;44.816;20.538;2022-09-09T09:46:30;19.08;;;8.18;;
66175;SDS011;52977;44.816;20.538;2022-09-09T09:49:05;17.92;;;8.18;;
66175;SDS011;52977;44.816;20.538;2022-09-09T09:51:35;15.07;;;7.47;;
66175;SDS011;52977;44.816;20.538;2022-09-09T09:54:38;13.88;;;6.82;;
66175;SDS011;52977;44.816;20.538;2022-09-09T10:00:32;23.05;;;8.20;;
66175;SDS011;52977;44.816;20.538;2022-09-09T10:03:00;20.25;;;8.30;;
66175;SDS011;52977;44.816;20.538;2022-09-09T10:05:29;15.55;;;7.93;;
66175;SDS011;52977;44.816;20.538;2022-09-09T10:08:13;12.98;;;7.93;;
66175;SDS011;52977;44.816;20.538;2022-09-09T10:19:09;15.55;;;8.27;;
66175;SDS011;52977;44.816;20.538;2022-09-09T10:24:34;13.95;;;8.15;;
66175;SDS011;52977;44.816;20.538;2022-09-09T10:35:41;16.75;;;9.55;;
66175;SDS011;52977;44.816;20.538;2022-09-09T10:38:20;16.45;;;9.27;;
66175;SDS011;52977;44.816;20.538;2022-09-09T10:45:55;12.85;;;7.38;;
66175;SDS011;52977;44.816;20.538;2022-09-09T10:57:12;20.52;;;8.50;;
66175;SDS011;52977;44.816;20.538;2022-09-09T10:59:47;13.88;;;8.68;;
66175;SDS011;52977;44.816;20.538;2022-09-09T11:02:17;16.67;;;8.15;;
66175;SDS011;52977;44.816;20.538;2022-09-09T11:08:03;13.60;;;7.55;;
66175;SDS011;52977;44.816;20.538;2022-09-09T11:13:02;13.57;;;7.80;;
66175;SDS011;52977;44.816;20.538;2022-09-09T11:15:31;13.10;;;8.15;;
66175;SDS011;52977;44.816;20.538;2022-09-09T11:18:06;19.85;;;9.60;;
66175;SDS011;52977;44.816;20.538;2022-09-09T11:20:39;23.17;;;11.05;;
66175;SDS011;52977;44.816;20.538;2022-09-09T11:23:07;15.38;;;7.95;;
66175;SDS011;52977;44.816;20.538;2022-09-09T11:25:39;13.05;;;7.43;;
66175;SDS011;52977;44.816;20.538;2022-09-09T11:38:50;12.95;;;7.95;;
66175;SDS011;52977;44.816;20.538;2022-09-09T11:41:18;12.60;;;7.93;;
66175;SDS011;52977;44.816;20.538;2022-09-09T11:43:49;12.18;;;7.53;;
66175;SDS011;52977;44.816;20.538;2022-09-09T11:46:17;13.00;;;7.72;;
66175;SDS011;52977;44.816;20.538;2022-09-09T11:48:57;18.20;;;8.13;;
66175;SDS011;52977;44.816;20.538;2022-09-09T11:53:53;9.93;;;6.93;;
66175;SDS011;52977;44.816;20.538;2022-09-09T11:56:28;12.70;;;7.55;;
66175;SDS011;52977;44.816;20.538;2022-09-09T12:01:27;15.10;;;7.45;;
66175;SDS011;52977;44.816;20.538;2022-09-09T12:07:21;10.55;;;5.60;;
66175;SDS011;52977;44.816;20.538;2022-09-09T12:14:37;14.48;;;6.90;;
66175;SDS011;52977;44.816;20.538;2022-09-09T12:19:40;9.32;;;5.35;;
66175;SDS011;52977;44.816;20.538;2022-09-09T12:24:41;9.07;;;4.57;;
66175;SDS011;52977;44.816;20.538;2022-09-09T12:27:18;10.98;;;5.05;;
66175;SDS011;52977;44.816;20.538;2022-09-09T12:29:55;9.73;;;4.97;;
66175;SDS011;52977;44.816;20.538;2022-09-09T12:32:24;12.88;;;5.55;;
66175;SDS011;52977;44.816;20.538;2022-09-09T12:34:53;13.27;;;5.47;;
66175;SDS011;52977;44.816;20.538;2022-09-09T12:40:17;11.63;;;5.63;;
66175;SDS011;52977;44.816;20.538;2022-09-09T12:42:49;9.88;;;5.03;;
66175;SDS011;52977;44.816;20.538;2022-09-09T12:45:16;9.57;;;5.53;;
66175;SDS011;52977;44.816;20.538;2022-09-09T12:47:51;14.32;;;6.03;;
66175;SDS011;52977;44.816;20.538;2022-09-09T12:50:25;11.45;;;5.80;;
66175;SDS011;52977;44.816;20.538;2022-09-09T12:52:54;12.57;;;6.43;;
66175;SDS011;52977;44.816;20.538;2022-09-09T12:55:24;11.63;;;5.45;;
66175;SDS011;52977;44.816;20.538;2022-09-09T12:57:53;10.68;;;5.47;;
66175;SDS011;52977;44.816;20.538;2022-09-09T13:00:20;13.95;;;5.72;;
66175;SDS011;52977;44.816;20.538;2022-09-09T13:02:57;12.10;;;5.72;;
66175;SDS011;52977;44.816;20.538;2022-09-09T13:05:26;14.63;;;5.88;;
66175;SDS011;52977;44.816;20.538;2022-09-09T13:08:05;11.82;;;5.80;;
66175;SDS011;52977;44.816;20.538;2022-09-09T13:10:36;10.70;;;6.03;;
66175;SDS011;52977;44.816;20.538;2022-09-09T13:13:15;15.10;;;6.07;;
66175;SDS011;52977;44.816;20.538;2022-09-09T13:15:48;13.65;;;6.43;;
66175;SDS011;52977;44.816;20.538;2022-09-09T13:18:34;12.70;;;6.22;;
66175;SDS011;52977;44.816;20.538;2022-09-09T13:21:03;12.80;;;6.50;;
66175;SDS011;52977;44.816;20.538;2022-09-09T13:23:30;11.55;;;6.43;;
66175;SDS011;52977;44.816;20.538;2022-09-09T13:26:02;13.48;;;6.80;;
66175;SDS011;52977;44.816;20.538;2022-09-09T13:28:33;12.88;;;6.85;;
66175;SDS011;52977;44.816;20.538;2022-09-09T13:31:04;15.55;;;6.22;;
66175;SDS011;52977;44.816;20.538;2022-09-09T13:33:44;12.05;;;6.30;;
66175;SDS011;52977;44.816;20.538;2022-09-09T13:36:10;14.63;;;6.20;;
66175;SDS011;52977;44.816;20.538;2022-09-09T13:38:40;12.80;;;5.75;;
66175;SDS011;52977;44.816;20.538;2022-09-09T13:41:23;13.98;;;6.63;;
66175;SDS011;52977;44.816;20.538;2022-09-09T13:43:53;13.98;;;6.60;;
66175;SDS011;52977;44.816;20.538;2022-09-09T13:46:31;16.77;;;7.60;;
66175;SDS011;52977;44.816;20.538;2022-09-09T13:48:58;10.57;;;6.50;;
66175;SDS011;52977;44.816;20.538;2022-09-09T13:54:09;12.27;;;6.28;;
66175;SDS011;52977;44.816;20.538;2022-09-09T13:56:36;10.52;;;6.28;;
66175;SDS011;52977;44.816;20.538;2022-09-09T13:59:04;13.25;;;7.60;;
66175;SDS011;52977;44.816;20.538;2022-09-09T14:01:37;13.98;;;6.95;;
66175;SDS011;52977;44.816;20.538;2022-09-09T14:04:03;12.60;;;6.75;;
66175;SDS011;52977;44.816;20.538;2022-09-09T14:06:30;11.00;;;6.55;;
66175;SDS011;52977;44.816;20.538;2022-09-09T14:08:57;11.98;;;6.68;;
66175;SDS011;52977;44.816;20.538;2022-09-09T14:11:24;28.45;;;11.57;;
66175;SDS011;52977;44.816;20.538;2022-09-09T14:13:49;23.55;;;8.30;;
66175;SDS011;52977;44.816;20.538;2022-09-09T14:16:16;12.90;;;6.10;;
66175;SDS011;52977;44.816;20.538;2022-09-09T14:18:42;15.95;;;7.18;;
66175;SDS011;52977;44.816;20.538;2022-09-09T14:21:11;15.80;;;6.40;;
66175;SDS011;52977;44.816;20.538;2022-09-09T14:23:37;14.25;;;6.30;;
66175;SDS011;52977;44.816;20.538;2022-09-09T14:26:04;12.63;;;5.70;;
66175;SDS011;52977;44.816;20.538;2022-09-09T14:28:31;12.50;;;5.72;;
66175;SDS011;52977;44.816;20.538;2022-09-09T14:31:01;11.02;;;5.07;;
66175;SDS011;52977;44.816;20.538;2022-09-09T14:33:29;10.25;;;5.30;;
66175;SDS011;52977;44.816;20.538;2022-09-09T14:35:56;12.10;;;5.95;;
66175;SDS011;52977;44.816;20.538;2022-09-09T14:40:54;12.38;;;6.53;;
66175;SDS011;52977;44.816;20.538;2022-09-09T14:43:19;21.52;;;10.05;;
66175;SDS011;52977;44.816;20.538;2022-09-09T14:45:45;14.02;;;6.65;;
66175;SDS011;52977;44.816;20.538;2022-09-09T14:48:13;15.15;;;7.45;;
66175;SDS011;52977;44.816;20.538;2022-09-09T14:50:42;15.10;;;6.97;;
66175;SDS011;52977;44.816;20.538;2022-09-09T14:53:08;15.32;;;7.00;;
66175;SDS011;52977;44.816;20.538;2022-09-09T14:55:35;12.25;;;5.82;;
66175;SDS011;52977;44.816;20.538;2022-09-09T14:58:02;12.27;;;6.15;;
66175;SDS011;52977;44.816;20.538;2022-09-09T15:00:29;10.38;;;5.30;;
66175;SDS011;52977;44.816;20.538;2022-09-09T15:02:54;14.25;;;5.75;;
66175;SDS011;52977;44.816;20.538;2022-09-09T15:05:21;10.80;;;4.82;;
66175;SDS011;52977;44.816;20.538;2022-09-09T15:07:46;11.35;;;5.55;;
66175;SDS011;52977;44.816;20.538;2022-09-09T15:10:13;13.38;;;6.18;;
66175;SDS011;52977;44.816;20.538;2022-09-09T15:12:39;15.02;;;5.18;;
66175;SDS011;52977;44.816;20.538;2022-09-09T15:15:07;12.38;;;5.25;;
66175;SDS011;52977;44.816;20.538;2022-09-09T15:17:33;9.85;;;5.20;;
66175;SDS011;52977;44.816;20.538;2022-09-09T15:20:00;8.25;;;4.97;;
66175;SDS011;52977;44.816;20.538;2022-09-09T15:22:26;11.73;;;6.13;;
66175;SDS011;52977;44.816;20.538;2022-09-09T15:24:53;12.95;;;5.75;;
66175;SDS011;52977;44.816;20.538;2022-09-09T15:27:18;12.85;;;6.05;;
66175;SDS011;52977;44.816;20.538;2022-09-09T15:29:44;9.95;;;5.65;;
66175;SDS011;52977;44.816;20.538;2022-09-09T15:32:10;11.52;;;5.63;;
66175;SDS011;52977;44.816;20.538;2022-09-09T15:34:36;15.77;;;7.18;;
66175;SDS011;52977;44.816;20.538;2022-09-09T15:37:01;15.48;;;5.80;;
66175;SDS011;52977;44.816;20.538;2022-09-09T15:39:27;10.95;;;5.45;;
66175;SDS011;52977;44.816;20.538;2022-09-09T15:41:53;13.77;;;5.93;;
66175;SDS011;52977;44.816;20.538;2022-09-09T15:44:18;9.35;;;5.20;;
66175;SDS011;52977;44.816;20.538;2022-09-09T15:46:46;12.20;;;5.57;;
66175;SDS011;52977;44.816;20.538;2022-09-09T15:49:19;13.07;;;6.22;;
66175;SDS011;52977;44.816;20.538;2022-09-09T15:51:51;12.60;;;5.68;;
66175;SDS011;52977;44.816;20.538;2022-09-09T15:54:30;12.35;;;5.78;;
66175;SDS011;52977;44.816;20.538;2022-09-09T15:56:58;13.82;;;5.70;;
66175;SDS011;52977;44.816;20.538;2022-09-09T15:59:26;14.73;;;5.70;;
66175;SDS011;52977;44.816;20.538;2022-09-09T16:01:53;11.07;;;5.57;;
66175;SDS011;52977;44.816;20.538;2022-09-09T16:04:20;13.18;;;5.53;;
66175;SDS011;52977;44.816;20.538;2022-09-09T16:06:51;11.27;;;6.00;;
66175;SDS011;52977;44.816;20.538;2022-09-09T16:09:34;12.07;;;5.68;;
66175;SDS011;52977;44.816;20.538;2022-09-09T16:12:01;13.95;;;5.97;;
66175;SDS011;52977;44.816;20.538;2022-09-09T16:14:31;13.85;;;7.28;;
66175;SDS011;52977;44.816;20.538;2022-09-09T16:16:59;9.23;;;5.32;;
66175;SDS011;52977;44.816;20.538;2022-09-09T16:19:25;10.90;;;6.80;;
66175;SDS011;52977;44.816;20.538;2022-09-09T16:21:51;11.10;;;5.82;;
66175;SDS011;52977;44.816;20.538;2022-09-09T16:24:18;11.35;;;5.70;;
66175;SDS011;52977;44.816;20.538;2022-09-09T16:26:45;12.15;;;5.25;;
66175;SDS011;52977;44.816;20.538;2022-09-09T16:29:13;11.43;;;5.50;;
66175;SDS011;52977;44.816;20.538;2022-09-09T16:31:39;8.98;;;5.38;;
66175;SDS011;52977;44.816;20.538;2022-09-09T16:34:05;10.07;;;5.03;;
66175;SDS011;52977;44.816;20.538;2022-09-09T16:36:33;16.40;;;5.50;;
66175;SDS011;52977;44.816;20.538;2022-09-09T16:39:00;11.52;;;6.25;;
66175;SDS011;52977;44.816;20.538;2022-09-09T16:41:29;14.32;;;5.65;;
66175;SDS011;52977;44.816;20.538;2022-09-09T16:43:55;12.55;;;5.32;;
66175;SDS011;52977;44.816;20.538;2022-09-09T16:46:25;15.25;;;5.65;;
66175;SDS011;52977;44.816;20.538;2022-09-09T16:48:52;9.52;;;6.15;;
66175;SDS011;52977;44.816;20.538;2022-09-09T16:51:21;14.30;;;6.47;;
66175;SDS011;52977;44.816;20.538;2022-09-09T16:53:49;14.52;;;6.00;;
66175;SDS011;52977;44.816;20.538;2022-09-09T16:56:16;12.75;;;5.65;;
66175;SDS011;52977;44.816;20.538;2022-09-09T16:58:44;13.00;;;5.75;;
66175;SDS011;52977;44.816;20.538;2022-09-09T17:01:19;11.35;;;6.53;;
66175;SDS011;52977;44.816;20.538;2022-09-09T17:03:44;11.93;;;6.43;;
66175;SDS011;52977;44.816;20.538;2022-09-09T17:06:14;11.10;;;6.60;;
66175;SDS011;52977;44.816;20.538;2022-09-09T17:08:40;11.73;;;6.47;;
66175;SDS011;52977;44.816;20.538;2022-09-09T17:11:17;11.00;;;7.03;;
66175;SDS011;52977;44.816;20.538;2022-09-09T17:13:47;11.95;;;5.65;;
66175;SDS011;52977;44.816;20.538;2022-09-09T17:16:14;16.67;;;6.05;;
66175;SDS011;52977;44.816;20.538;2022-09-09T17:18:40;14.38;;;6.65;;
66175;SDS011;52977;44.816;20.538;2022-09-09T17:21:08;13.68;;;6.03;;
66175;SDS011;52977;44.816;20.538;2022-09-09T17:23:36;9.30;;;5.32;;
66175;SDS011;52977;44.816;20.538;2022-09-09T17:26:06;12.45;;;5.55;;